Time;durP1;ratioP1;P1;durP2;ratioP2;P2;SDS_P1;SDS_P2;PMS_P1;PMS_P2;Temp;Humidity;BMP_temperature;BMP_pressure;BME280_temperature;BME280_humidity;BME280_pressure;Samples;Min_cycle;Max_cycle;Signal;HPM_P1;HPM_P2
2023/06/07 00:01:13;;;;;;;;;;;;;;;21.12;62.19;100402.13;5274135;33;35028;-90
2023/06/07 00:04:52;;;;;;;;;;;;;;;20.77;64.29;100413.87;5265578;33;44432;-89
2023/06/07 00:08:09;;;;;;;;;;;;;;;21.34;61.57;100412.75;5248508;33;33205;-90
2023/06/07 00:11:21;;;;;;;;;;;;;;;21.46;61.17;100402.87;5224373;33;44671;-89
2023/06/07 00:15:00;;;;;;;;;;;;;;;20.39;66.33;100402.75;5221375;33;34191;-89
2023/06/07 00:18:49;;;;;;;;;;;;;;;20.30;68.51;100404.34;5223846;33;34001;-89
2023/06/07 00:22:02;;;;;;;;;;;;;;;19.87;70.86;100410.34;5216648;33;35421;-89
2023/06/07 00:26:29;;;;;;;;;;;;;;;19.92;70.25;100402.84;5225219;33;35839;-89
2023/06/07 00:29:25;;;;;;;;;;;;;;;19.46;72.56;100401.03;5233182;33;32914;-90
2023/06/07 00:33:20;;;;;;;;;;;;;;;19.61;74.64;100395.50;5286006;32;31687;-90
2023/06/07 00:36:57;;;;;;;;;;;;;;;19.76;73.75;100394.31;5250883;32;34164;-90
2023/06/07 00:40:20;;;;;;;;;;;;;;;20.77;69.56;100400.53;5306958;32;33786;-90
2023/06/07 00:43:49;;;;;;;;;;;;;;;20.22;72.93;100396.06;5307751;32;33485;-90
2023/06/07 00:47:16;;;;;;;;;;;;;;;20.63;70.58;100389.28;5324371;32;33616;-90
2023/06/07 00:51:23;;;;;;;;;;;;;;;20.60;70.13;100394.84;5295768;32;33569;-89
2023/06/07 00:54:47;;;;;;;;;;;;;;;;;;;;;
2023/06/07 00:58:25;;;;;;;;;;;;;;;20.14;72.53;100406.50;5318676;32;33816;-89
2023/06/07 01:02:01;;;;;;;;;;;;;;;19.57;75.69;100404.66;5366334;32;34247;-89
2023/06/07 01:05:48;;;;;;;;;;;;;;;19.71;75.68;100405.38;5322278;32;35835;-89
2023/06/07 01:09:15;;;;;;;;;;;;;;;20.19;74.82;100405.16;5362631;32;34306;-89
2023/06/07 01:12:55;;;;;;;;;;;;;;;;;;;;;
2023/06/07 01:16:25;;;;;;;;;;;;;;;;;;;;;
2023/06/07 01:19:42;;;;;;;;;;;;;;;19.96;74.77;100390.94;5319582;32;33613;-89
2023/06/07 01:26:47;;;;;;;;;;;;;;;19.72;72.87;100387.53;5303948;32;32958;-89
2023/06/07 01:29:58;;;;;;;;;;;;;;;20.78;67.10;100378.19;5337121;32;35520;-90
2023/06/07 01:33:22;;;;;;;;;;;;;;;21.14;64.80;100370.78;5309584;32;43088;-91
2023/06/07 01:36:43;;;;;;;;;;;;;;;21.38;63.84;100373.25;5328788;32;33774;-89
2023/06/07 01:40:19;;;;;;;;;;;;;;;21.45;63.45;100377.13;5329213;32;32847;-90
2023/06/07 01:43:38;;;;;;;;;;;;;;;21.54;62.93;100370.97;5338819;32;34341;-89
2023/06/07 01:46:53;;;;;;;;;;;;;;;20.15;68.91;100378.84;5324375;32;44526;-89
2023/06/07 01:50:19;;;;;;;;;;;;;;;20.93;64.70;100372.56;5354011;32;34325;-90
2023/06/07 01:53:40;;;;;;;;;;;;;;;20.06;67.49;100372.41;5299456;32;35832;-89
2023/06/07 01:57:09;;;;;;;;;;;;;;;20.97;63.84;100366.00;5280138;32;43388;-90
2023/06/07 02:00:28;;;;;;;;;;;;;;;20.21;66.05;100370.34;5293539;32;43493;-89
2023/06/07 02:03:41;;;;;;;;;;;;;;;20.48;64.85;100368.19;5322722;32;35180;-89
2023/06/07 02:06:52;;;;;;;;;;;;;;;20.01;66.80;100375.44;5323147;32;43644;-89
2023/06/07 02:10:00;;;;;;;;;;;;;;;21.23;62.71;100378.03;5317416;32;32703;-89
2023/06/07 02:13:06;;;;;;;;;;;;;;;21.20;62.24;100372.09;5307257;32;33426;-89
2023/06/07 02:16:17;;;;;;;;;;;;;;;21.01;63.28;100373.63;5316868;32;32897;-89
2023/06/07 02:19:24;;;;;;;;;;;;;;;20.91;63.70;100374.50;5294950;32;44771;-89
2023/06/07 02:22:36;;;;;;;;;;;;;;;19.69;68.98;100371.78;5318017;32;32230;-89
2023/06/07 02:25:43;;;;;;;;;;;;;;;19.29;71.33;100374.78;5346214;32;43628;-89
2023/06/07 02:28:46;;;;;;;;;;;;;;;19.91;67.10;100378.97;5343982;32;44680;-89
2023/06/07 02:31:57;;;;;;;;;;;;;;;20.02;67.03;100373.63;5338636;32;34185;-89
2023/06/07 02:35:12;;;;;;;;;;;;;;;20.81;61.80;100364.59;5341468;32;36054;-89
2023/06/07 02:38:27;;;;;;;;;;;;;;;19.73;68.21;100375.91;5364779;32;35053;-90
2023/06/07 02:41:33;;;;;;;;;;;;;;;20.70;63.54;100364.62;5360946;32;35044;-90
2023/06/07 02:44:38;;;;;;;;;;;;;;;20.63;63.39;100365.25;5363061;32;31945;-89
2023/06/07 02:47:47;;;;;;;;;;;;;;;20.68;61.89;100377.25;5334962;32;44470;-89
2023/06/07 02:50:55;;;;;;;;;;;;;;;20.21;64.21;100367.69;5348089;32;33031;-89
2023/06/07 02:54:18;;;;;;;;;;;;;;;;;;;;;
2023/06/07 02:57:27;;;;;;;;;;;;;;;20.14;64.00;100374.47;5349814;32;34828;-89
2023/06/07 03:00:32;;;;;;;;;;;;;;;19.87;64.86;100366.84;5361517;32;34764;-89
2023/06/07 03:03:50;;;;;;;;;;;;;;;19.59;66.25;100366.31;5354198;32;33505;-89
2023/06/07 03:07:13;;;;;;;;;;;;;;;19.73;67.33;100367.91;5335445;32;35008;-89
2023/06/07 03:11:06;;;;;;;;;;;;;;;20.34;65.21;100365.72;5321625;32;34018;-89
2023/06/07 03:14:17;;;;;;;;;;;;;;;20.05;68.28;100368.06;5290498;32;32497;-89
2023/06/07 03:17:35;;;;;;;;;;;;;;;20.07;69.74;100370.59;5366766;32;32107;-89
2023/06/07 03:20:53;;;;;;;;;;;;;;;20.32;70.03;100372.19;5349929;32;44974;-89
2023/06/07 03:23:59;;;;;;;;;;;;;;;19.99;72.48;100382.72;5328064;32;35250;-89
2023/06/07 03:27:08;;;;;;;;;;;;;;;19.38;74.64;100390.06;5369485;32;35393;-89
2023/06/07 03:30:14;;;;;;;;;;;;;;;19.98;71.45;100381.03;5351266;32;44478;-89
2023/06/07 03:33:24;;;;;;;;;;;;;;;20.15;70.07;100393.03;5353859;32;35253;-91
2023/06/07 03:36:29;;;;;;;;;;;;;;;20.38;68.75;100380.53;5372866;32;34015;-90
2023/06/07 03:39:32;;;;;;;;;;;;;;;20.93;68.46;100384.12;5351354;32;34909;-89
2023/06/07 03:42:38;;;;;;;;;;;;;;;20.90;68.99;100387.03;5328116;32;34390;-91
2023/06/07 03:45:41;;;;;;;;;;;;;;;21.27;65.45;100394.66;5356937;32;44011;-90
2023/06/07 03:48:55;;;;;;;;;;;;;;;20.59;67.55;100383.31;5360380;32;34398;-91
2023/06/07 03:51:57;;;;;;;;;;;;;;;20.78;66.12;100393.37;5337259;32;34632;-90
2023/06/07 03:55:00;;;;;;;;;;;;;;;20.98;64.65;100391.72;5351359;32;32956;-89
2023/06/07 03:58:02;;;;;;;;;;;;;;;20.52;65.49;100396.31;5363924;32;36384;-90
2023/06/07 04:01:07;;;;;;;;;;;;;;;20.83;65.04;100391.16;5350377;32;34106;-90
2023/06/07 04:04:10;;;;;;;;;;;;;;;21.09;63.58;100391.69;5348974;32;35101;-89
2023/06/07 04:07:13;;;;;;;;;;;;;;;21.21;61.22;100388.00;5359686;32;44627;-89
2023/06/07 04:10:15;;;;;;;;;;;;;;;20.90;61.55;100384.34;5370816;32;34824;-89
2023/06/07 04:13:20;;;;;;;;;;;;;;;20.52;63.47;100388.31;5369925;32;33371;-89
2023/06/07 04:16:25;;;;;;;;;;;;;;;19.69;66.62;100388.63;5352145;32;33574;-90
2023/06/07 04:19:28;;;;;;;;;;;;;;;20.02;67.17;100395.81;5348486;32;31910;-90
2023/06/07 04:22:35;;;;;;;;;;;;;;;20.56;64.63;100394.28;5348254;32;33921;-89
2023/06/07 04:25:38;;;;;;;;;;;;;;;20.13;65.67;100397.66;5339541;32;35479;-89
2023/06/07 04:28:47;;;;;;;;;;;;;;;21.09;60.57;100389.87;5351800;32;34337;-89
2023/06/07 04:31:59;;;;;;;;;;;;;;;20.37;62.67;100399.34;5314386;32;32668;-89
2023/06/07 04:35:10;;;;;;;;;;;;;;;20.20;63.30;100393.53;5343192;32;32989;-90
2023/06/07 04:38:36;;;;;;;;;;;;;;;20.71;60.36;100398.34;5280415;32;44152;-91
2023/06/07 04:46:02;;;;;;;;;;;;;;;20.66;60.06;100397.88;5325582;32;34314;-90
2023/06/07 04:49:51;;;;;;;;;;;;;;;20.65;61.01;100398.00;5337636;32;34081;-90
2023/06/07 04:53:17;;;;;;;;;;;;;;;20.16;60.25;100400.09;5357592;32;32881;-89
2023/06/07 04:56:27;;;;;;;;;;;;;;;20.69;58.80;100394.97;5330807;32;33259;-90
2023/06/07 04:59:49;;;;;;;;;;;;;;;20.11;60.46;100398.75;5332268;32;32254;-89
2023/06/07 05:03:06;;;;;;;;;;;;;;;20.46;59.07;100402.16;5347482;32;33385;-90
2023/06/07 05:06:36;;;;;;;;;;;;;;;21.63;54.74;100404.94;5337786;32;44261;-89
2023/06/07 05:09:56;;;;;;;;;;;;;;;21.32;55.83;100413.87;5348452;32;44801;-90
2023/06/07 05:13:01;;;;;;;;;;;;;;;21.63;54.26;100407.63;5348558;32;33832;-90
2023/06/07 05:16:16;;;;;;;;;;;;;;;21.47;54.73;100409.06;5364046;32;36025;-90
2023/06/07 05:19:25;;;;;;;;;;;;;;;21.95;53.57;100404.00;5345963;32;32999;-90
2023/06/07 05:22:35;;;;;;;;;;;;;;;21.75;54.57;100397.72;5362528;32;33947;-90
2023/06/07 05:25:58;;;;;;;;;;;;;;;21.04;56.51;100391.22;5350007;32;35126;-89
2023/06/07 05:29:04;;;;;;;;;;;;;;;20.90;56.47;100392.38;5350382;32;33094;-91
2023/06/07 05:32:12;;;;;;;;;;;;;;;20.82;57.93;100401.00;5355665;32;34806;-90
2023/06/07 05:35:21;;;;;;;;;;;;;;;20.46;60.52;100399.47;5341684;32;44666;-90
2023/06/07 05:38:31;;;;;;;;;;;;;;;20.07;59.70;100407.94;5334310;32;32204;-89
2023/06/07 05:41:51;;;;;;;;;;;;;;;20.83;58.03;100397.34;5332957;32;33363;-92
2023/06/07 05:44:56;;;;;;;;;;;;;;;21.35;57.01;100401.09;5330554;32;962474;-89
2023/06/07 05:47:59;;;;;;;;;;;;;;;21.66;55.45;100406.53;5343775;32;34779;-91
2023/06/07 05:51:04;;;;;;;;;;;;;;;21.84;55.47;100409.47;5333972;32;35013;-89
2023/06/07 05:54:12;;;;;;;;;;;;;;;20.88;58.58;100409.50;5366412;32;33397;-90
2023/06/07 05:57:15;;;;;;;;;;;;;;;21.46;56.31;100416.25;5348827;32;44893;-88
2023/06/07 06:00:18;;;;;;;;;;;;;;;21.56;56.16;100414.47;5343539;32;33643;-92
2023/06/07 06:03:23;;;;;;;;;;;;;;;21.46;56.01;100410.03;5329824;32;33732;-93
2023/06/07 06:06:36;;;;;;;;;;;;;;;22.04;55.11;100415.78;5323046;32;32703;-91
2023/06/07 06:09:53;;;;;;;;;;;;;;;21.63;56.98;100409.44;5321762;32;43189;-89
2023/06/07 06:13:36;;;;;;;;;;;;;;;;;;;;;
2023/06/07 06:16:43;;;;;;;;;;;;;;;22.51;53.68;100410.78;5348688;32;35121;-93
2023/06/07 06:19:55;;;;;;;;;;;;;;;22.57;53.44;100419.13;5292716;32;32908;-93
2023/06/07 06:23:03;;;;;;;;;;;;;;;22.36;53.94;100421.03;5276426;32;33124;-90
2023/06/07 06:26:17;;;;;;;;;;;;;;;21.39;56.82;100420.41;5339522;32;35800;-90
2023/06/07 06:29:44;;;;;;;;;;;;;;;22.49;53.92;100418.97;5349140;32;35337;-92
2023/06/07 06:33:03;;;;;;;;;;;;;;;22.51;53.72;100421.50;5366889;32;33449;-92
2023/06/07 06:36:20;;;;;;;;;;;;;;;21.87;54.23;100420.72;5341802;32;44973;-90
2023/06/07 06:43:47;;;;;;;;;;;;;;;21.76;55.56;100423.47;5287121;32;32828;-91
2023/06/07 06:50:57;;;;;;;;;;;;;;;;;;;;;
2023/06/07 06:54:51;;;;;;;;;;;;;;;22.51;55.33;100425.03;5277502;32;34188;-94
2023/06/07 07:02:38;;;;;;;;;;;;;;;21.73;58.89;100425.56;5102874;33;33232;-91
2023/06/07 07:06:09;;;;;;;;;;;;;;;22.35;57.19;100430.91;5070405;34;34713;-90
2023/06/07 07:09:21;;;;;;;;;;;;;;;21.75;60.25;100420.94;5416066;31;800448;-68
2023/06/07 07:12:23;;;;;;;;;;;;;;;23.21;54.25;100420.53;5415670;32;34149;-67
2023/06/07 07:15:27;;;;;;;;;;;;;;;23.05;54.13;100429.12;5425946;32;34328;-69
2023/06/07 07:18:29;;;;;;;;;;;;;;;23.07;54.06;100431.69;5419403;32;34035;-65
2023/06/07 07:21:32;;;;;;;;;;;;;;;23.06;53.50;100427.31;5416778;32;35760;-67
2023/06/07 07:24:33;;;;;;;;;;;;;;;22.51;55.55;100435.75;5429884;32;35365;-69
2023/06/07 07:27:36;;;;;;;;;;;;;;;22.21;58.38;100435.75;5420658;32;35903;-63
2023/06/07 07:30:40;;;;;;;;;;;;;;;23.09;54.59;100427.88;5428234;32;33884;-64
2023/06/07 07:33:41;;;;;;;;;;;;;;;24.09;50.84;100434.72;5418967;32;44740;-67
2023/06/07 07:36:44;;;;;;;;;;;;;;;23.77;51.26;100442.16;5435331;32;32813;-68
2023/06/07 07:39:46;;;;;;;;;;;;;;;23.51;52.02;100435.66;5434208;32;36708;-66
2023/06/07 07:42:48;;;;;;;;;;;;;;;23.36;52.16;100427.19;5436449;32;34133;-67
2023/06/07 07:45:50;;;;;;;;;;;;;;;23.93;50.66;100433.50;5444915;32;34282;-66
2023/06/07 07:48:54;;;;;;;;;;;;;;;23.52;51.89;100437.34;5441145;32;34368;-64
2023/06/07 07:51:56;;;;;;;;;;;;;;;23.53;51.08;100433.69;5447794;32;34063;-65
2023/06/07 07:54:58;;;;;;;;;;;;;;;23.30;52.28;100443.81;5427816;32;36530;-72
2023/06/07 07:58:00;;;;;;;;;;;;;;;23.21;53.27;100432.12;5439194;32;37339;-68
2023/06/07 08:01:03;;;;;;;;;;;;;;;23.37;52.98;100441.44;5423868;32;34198;-68
2023/06/07 08:04:05;;;;;;;;;;;;;;;24.02;50.96;100442.50;5421821;32;34346;-68
2023/06/07 08:07:07;;;;;;;;;;;;;;;24.07;50.82;100442.09;5444775;32;34168;-64
2023/06/07 08:10:12;;;;;;;;;;;;;;;24.36;49.91;100444.72;5391782;32;34218;-64
2023/06/07 08:13:14;;;;;;;;;;;;;;;24.05;50.96;100444.91;5422005;32;45669;-73
2023/06/07 08:16:18;;;;;;;;;;;;;;;23.99;50.74;100440.13;5405946;32;33964;-66
2023/06/07 08:19:20;;;;;;;;;;;;;;;24.31;50.19;100445.97;5413898;32;34062;-66
2023/06/07 08:22:23;;;;;;;;;;;;;;;24.43;49.61;100446.66;5400420;32;36946;-63
2023/06/07 08:25:32;;;;;;;;;;;;;;;24.00;51.40;100444.50;5401965;32;34317;-66
2023/06/07 08:28:35;;;;;;;;;;;;;;;23.26;53.73;100446.94;5405324;32;34051;-67
2023/06/07 08:31:43;;;;;;;;;;;;;;;23.17;54.61;100446.78;5399058;32;34425;-66
2023/06/07 08:34:45;;;;;;;;;;;;;;;22.66;56.04;100447.75;5405576;32;45462;-67
2023/06/07 08:37:47;;;;;;;;;;;;;;;24.00;51.96;100441.81;5404703;32;33351;-66
2023/06/07 08:40:55;;;;;;;;;;;;;;;23.86;52.46;100442.28;5393303;32;34074;-64
2023/06/07 08:43:57;;;;;;;;;;;;;;;24.60;50.24;100439.66;5404291;32;36192;-68
2023/06/07 08:46:59;;;;;;;;;;;;;;;23.60;53.13;100434.78;5388358;32;35461;-70
2023/06/07 08:50:02;;;;;;;;;;;;;;;23.17;54.96;100432.53;5406919;32;35614;-63
2023/06/07 08:53:08;;;;;;;;;;;;;;;24.12;52.41;100439.81;5391339;32;34395;-64
2023/06/07 08:56:09;;;;;;;;;;;;;;;24.33;51.25;100410.91;5408134;32;32657;-65
2023/06/07 08:59:12;;;;;;;;;;;;;;;24.22;50.96;100428.06;5387294;32;44314;-70
2023/06/07 09:02:14;;;;;;;;;;;;;;;23.95;52.93;100422.59;5386415;32;34098;-65
2023/06/07 09:05:17;;;;;;;;;;;;;;;23.77;53.37;100431.44;5385236;32;34591;-68
2023/06/07 09:08:19;;;;;;;;;;;;;;;24.47;51.07;100423.91;5376580;32;35064;-69
2023/06/07 09:11:21;;;;;;;;;;;;;;;23.87;52.58;100423.34;5406594;32;35387;-73
2023/06/07 09:14:23;;;;;;;;;;;;;;;24.25;52.20;100426.91;5384996;32;34511;-68
2023/06/07 09:17:27;;;;;;;;;;;;;;;24.10;52.55;100426.53;5399004;32;35417;-70
2023/06/07 09:20:36;;;;;;;;;;;;;;;24.56;50.18;100431.06;5397047;32;37028;-68
2023/06/07 09:23:38;;;;;;;;;;;;;;;23.59;53.71;100434.94;5389996;32;34434;-72
2023/06/07 09:26:41;;;;;;;;;;;;;;;23.91;52.55;100442.69;5404782;32;46091;-68
2023/06/07 09:29:43;;;;;;;;;;;;;;;24.37;51.08;100430.28;5397055;32;34765;-66
2023/06/07 09:32:45;;;;;;;;;;;;;;;24.50;51.01;100431.66;5405176;32;33292;-66
2023/06/07 09:36:01;;;;;;;;;;;;;;;24.77;50.39;100433.47;5396968;32;35319;-68
2023/06/07 09:39:08;;;;;;;;;;;;;;;24.95;50.00;100436.22;5397702;32;35371;-65
2023/06/07 09:42:15;;;;;;;;;;;;;;;25.54;48.34;100439.31;5393644;32;43100;-65
2023/06/07 09:45:17;;;;;;;;;;;;;;;24.53;50.87;100442.06;5398205;32;35512;-65
2023/06/07 09:48:19;;;;;;;;;;;;;;;24.26;52.18;100437.50;5411008;32;34814;-66
2023/06/07 09:51:21;;;;;;;;;;;;;;;23.92;52.81;100434.50;5391312;32;34013;-67
2023/06/07 09:54:37;;;;;;;;;;;;;;;24.80;50.85;100438.56;5398710;32;33988;-69
2023/06/07 09:57:41;;;;;;;;;;;;;;;24.49;51.54;100438.03;5380241;32;44622;-68
2023/06/07 10:00:44;;;;;;;;;;;;;;;23.68;53.66;100437.63;5391788;32;34182;-65
2023/06/07 10:03:47;;;;;;;;;;;;;;;24.15;51.76;100440.37;5409005;32;34380;-68
2023/06/07 10:06:50;;;;;;;;;;;;;;;23.40;54.19;100433.97;5383166;32;35262;-71
2023/06/07 10:09:53;;;;;;;;;;;;;;;23.55;54.04;100434.38;5382194;32;34174;-69
2023/06/07 10:12:58;;;;;;;;;;;;;;;24.52;51.07;100431.50;5386750;32;34028;-69
2023/06/07 10:16:00;;;;;;;;;;;;;;;24.75;50.29;100419.34;5403741;32;37237;-67
2023/06/07 10:19:11;;;;;;;;;;;;;;;25.17;49.10;100416.13;5389932;32;35536;-75
2023/06/07 10:22:17;;;;;;;;;;;;;;;23.87;52.03;100428.72;5397854;32;48171;-69
2023/06/07 10:25:20;;;;;;;;;;;;;;;23.75;53.09;100421.81;5389268;32;34219;-65
2023/06/07 10:28:22;;;;;;;;;;;;;;;24.58;50.77;100412.94;5389278;32;34045;-76
2023/06/07 10:31:26;;;;;;;;;;;;;;;24.68;50.83;100420.94;5402000;32;35846;-64
2023/06/07 10:34:28;;;;;;;;;;;;;;;24.72;49.92;100421.47;5399977;32;34234;-64
2023/06/07 10:37:33;;;;;;;;;;;;;;;24.84;49.52;100412.22;5397038;32;34294;-65
2023/06/07 10:40:35;;;;;;;;;;;;;;;24.87;49.58;100406.56;5380841;32;34237;-74
2023/06/07 10:43:37;;;;;;;;;;;;;;;24.90;49.94;100418.84;5377090;32;34938;-68
2023/06/07 10:46:40;;;;;;;;;;;;;;;25.17;49.23;100423.34;5391210;32;33947;-69
2023/06/07 10:49:53;;;;;;;;;;;;;;;25.14;49.48;100420.97;5384270;32;34357;-65
2023/06/07 10:53:02;;;;;;;;;;;;;;;25.18;49.21;100409.72;5393024;32;35452;-62
2023/06/07 10:56:23;;;;;;;;;;;;;;;24.66;50.94;100420.22;5393149;32;35443;-66
2023/06/07 10:59:28;;;;;;;;;;;;;;;25.11;49.60;100409.50;5399206;32;35130;-62
2023/06/07 11:02:30;;;;;;;;;;;;;;;25.01;49.94;100407.88;5392476;32;35501;-62
2023/06/07 11:05:53;;;;;;;;;;;;;;;24.91;50.39;100410.63;5391050;32;34363;-62
2023/06/07 11:09:17;;;;;;;;;;;;;;;25.30;48.79;100413.87;5379266;32;34283;-72
2023/06/07 11:12:45;;;;;;;;;;;;;;;24.56;50.74;100412.25;5392263;32;44774;-65
2023/06/07 11:15:47;;;;;;;;;;;;;;;26.13;46.54;100411.66;5394835;32;44438;-65
2023/06/07 11:18:57;;;;;;;;;;;;;;;25.73;47.75;100411.41;5404071;32;34823;-72
2023/06/07 11:22:05;;;;;;;;;;;;;;;25.39;49.16;100410.28;5389014;32;34788;-70
2023/06/07 11:25:13;;;;;;;;;;;;;;;24.61;50.33;100416.34;5387803;32;34228;-71
2023/06/07 11:28:16;;;;;;;;;;;;;;;25.29;48.25;100408.66;5393046;32;44529;-68
2023/06/07 11:31:18;;;;;;;;;;;;;;;26.16;47.38;100402.44;5384344;32;34298;-66
2023/06/07 11:34:20;;;;;;;;;;;;;;;26.37;46.05;100408.28;5412202;32;35753;-64
2023/06/07 11:37:24;;;;;;;;;;;;;;;25.94;46.33;100409.19;5402306;32;34162;-67
2023/06/07 11:40:28;;;;;;;;;;;;;;;25.29;48.42;100412.19;5400155;32;34249;-70
2023/06/07 11:43:31;;;;;;;;;;;;;;;24.98;49.20;100413.53;5387038;32;34367;-70
2023/06/07 11:46:33;;;;;;;;;;;;;;;26.38;45.74;100409.09;5397790;32;35865;-66
2023/06/07 11:49:38;;;;;;;;;;;;;;;25.25;48.50;100402.78;5366731;32;35864;-67
2023/06/07 11:52:40;;;;;;;;;;;;;;;25.52;47.63;100407.19;5372828;32;44994;-71
2023/06/07 11:55:43;;;;;;;;;;;;;;;24.74;49.71;100403.37;5381304;32;35837;-68
2023/06/07 11:58:45;;;;;;;;;;;;;;;25.35;48.57;100395.44;5387673;32;34157;-66
2023/06/07 12:01:53;;;;;;;;;;;;;;;26.36;45.63;100395.81;5401597;32;35438;-63
2023/06/07 12:04:56;;;;;;;;;;;;;;;25.35;48.58;100405.38;5400306;32;35384;-66
2023/06/07 12:07:59;;;;;;;;;;;;;;;25.12;49.18;100392.41;5390393;32;34618;-63
2023/06/07 12:11:01;;;;;;;;;;;;;;;25.95;46.59;100391.19;5403031;32;43028;-64
2023/06/07 12:14:05;;;;;;;;;;;;;;;25.25;48.40;100383.09;5418383;32;34354;-64
2023/06/07 12:17:09;;;;;;;;;;;;;;;26.18;46.06;100385.09;5416094;32;35532;-66
2023/06/07 12:20:12;;;;;;;;;;;;;;;25.77;46.89;100372.44;5412231;32;34669;-67
2023/06/07 12:23:14;;;;;;;;;;;;;;;26.05;46.28;100363.16;5419519;32;34792;-66
2023/06/07 12:26:20;;;;;;;;;;;;;;;26.43;45.40;100359.16;5404962;32;34095;-66
2023/06/07 12:29:29;;;;;;;;;;;;;;;26.51;45.11;100347.56;5422933;32;44414;-67
2023/06/07 12:32:31;;;;;;;;;;;;;;;26.52;44.46;100340.31;5414536;32;35891;-64
2023/06/07 12:35:34;;;;;;;;;;;;;;;26.92;43.46;100331.44;5419458;32;35690;-64
2023/06/07 12:38:43;;;;;;;;;;;;;;;26.71;44.28;100329.22;5423448;32;34028;-65
2023/06/07 12:41:45;;;;;;;;;;;;;;;26.37;44.69;100331.97;5415191;32;35858;-66
2023/06/07 12:44:48;;;;;;;;;;;;;;;27.10;43.15;100320.53;5419814;32;43179;-69
2023/06/07 12:47:52;;;;;;;;;;;;;;;26.49;45.15;100327.19;5414841;32;35512;-67
2023/06/07 12:50:54;;;;;;;;;;;;;;;27.10;44.14;100324.09;5415174;32;35761;-63
2023/06/07 12:53:56;;;;;;;;;;;;;;;26.95;44.38;100320.34;5422982;32;35311;-62
2023/06/07 12:56:58;;;;;;;;;;;;;;;26.66;44.15;100318.09;5420352;32;33984;-66
2023/06/07 13:00:00;;;;;;;;;;;;;;;26.49;44.70;100321.78;5407258;32;33463;-70
2023/06/07 13:03:02;;;;;;;;;;;;;;;26.71;43.96;100318.44;5405466;32;34258;-65
2023/06/07 13:06:05;;;;;;;;;;;;;;;25.47;46.99;100330.62;5416380;32;35291;-67
2023/06/07 13:09:08;;;;;;;;;;;;;;;26.54;44.67;100322.97;5422576;32;36498;-69
2023/06/07 13:12:14;;;;;;;;;;;;;;;26.97;44.25;100318.31;5420539;32;34813;-64
2023/06/07 13:15:16;;;;;;;;;;;;;;;25.67;46.84;100326.72;5425156;32;34301;-69
2023/06/07 13:18:18;;;;;;;;;;;;;;;26.26;45.28;100322.34;5422623;32;34181;-67
2023/06/07 13:21:21;;;;;;;;;;;;;;;26.18;45.34;100319.63;5426560;32;34233;-64
2023/06/07 13:24:23;;;;;;;;;;;;;;;26.13;44.97;100311.19;5411298;32;34267;-63
2023/06/07 13:27:26;;;;;;;;;;;;;;;26.93;43.04;100308.91;5425548;32;33172;-64
2023/06/07 13:30:31;;;;;;;;;;;;;;;27.28;42.47;100302.34;5426356;32;34292;-65
2023/06/07 13:33:33;;;;;;;;;;;;;;;28.08;40.20;100302.34;5423901;32;35571;-67
2023/06/07 13:36:36;;;;;;;;;;;;;;;27.60;40.85;100301.44;5422091;32;34188;-66
2023/06/07 13:39:43;;;;;;;;;;;;;;;28.05;40.14;100295.41;5413946;32;34288;-67
2023/06/07 13:42:45;;;;;;;;;;;;;;;27.52;41.62;100299.59;5418897;32;34358;-68
2023/06/07 13:45:47;;;;;;;;;;;;;;;26.84;42.68;100299.09;5422900;32;34306;-69
2023/06/07 13:48:50;;;;;;;;;;;;;;;28.25;39.80;100290.44;5411758;32;34901;-64
2023/06/07 13:51:52;;;;;;;;;;;;;;;28.51;39.56;100290.12;5426114;32;34065;-68
2023/06/07 13:54:57;;;;;;;;;;;;;;;27.98;39.43;100288.19;5424572;32;34125;-73
2023/06/07 13:57:59;;;;;;;;;;;;;;;26.68;42.79;100289.16;5429769;32;34231;-66
2023/06/07 14:01:02;;;;;;;;;;;;;;;27.36;41.50;100286.12;5426522;32;34001;-66
2023/06/07 14:04:05;;;;;;;;;;;;;;;27.70;41.00;100283.22;5417750;32;34103;-64
2023/06/07 14:07:07;;;;;;;;;;;;;;;27.04;42.83;100278.88;5410282;32;34197;-71
2023/06/07 14:10:09;;;;;;;;;;;;;;;27.98;40.95;100277.37;5421485;32;34235;-69
2023/06/07 14:13:15;;;;;;;;;;;;;;;26.91;43.71;100279.38;5418048;32;35633;-67
2023/06/07 14:16:19;;;;;;;;;;;;;;;26.89;44.61;100277.87;5404328;32;35392;-65
2023/06/07 14:19:21;;;;;;;;;;;;;;;26.81;44.75;100276.00;5415984;32;33853;-66
2023/06/07 14:22:24;;;;;;;;;;;;;;;27.12;44.81;100259.19;5423763;32;35743;-83
2023/06/07 14:25:26;;;;;;;;;;;;;;;27.78;42.73;100266.16;5391683;32;34174;-64
2023/06/07 14:28:28;;;;;;;;;;;;;;;28.15;42.22;100264.66;5420598;32;34355;-69
2023/06/07 14:31:32;;;;;;;;;;;;;;;27.65;43.60;100258.56;5420638;32;34348;-64
2023/06/07 14:34:34;;;;;;;;;;;;;;;27.13;44.20;100247.37;5423726;32;35507;-72
2023/06/07 14:37:36;;;;;;;;;;;;;;;27.64;43.76;100250.66;5419460;32;34606;-67
2023/06/07 14:40:38;;;;;;;;;;;;;;;27.08;45.11;100247.06;5414512;32;35394;-68
2023/06/07 14:43:40;;;;;;;;;;;;;;;26.89;44.83;100259.84;5420213;32;35541;-66
2023/06/07 14:46:42;;;;;;;;;;;;;;;26.35;46.94;100251.31;5423114;32;35639;-66
2023/06/07 14:49:44;;;;;;;;;;;;;;;26.56;46.82;100247.34;5430740;32;35596;-65
2023/06/07 14:52:46;;;;;;;;;;;;;;;25.60;49.02;100263.78;5420213;32;34214;-64
2023/06/07 14:55:48;;;;;;;;;;;;;;;25.95;48.66;100238.56;5419135;32;35060;-66
2023/06/07 14:58:50;;;;;;;;;;;;;;;26.20;47.85;100244.88;5417802;32;34832;-70
2023/06/07 15:01:52;;;;;;;;;;;;;;;26.55;47.33;100251.91;5420878;32;34303;-72
2023/06/07 15:04:54;;;;;;;;;;;;;;;25.57;49.29;100256.88;5422891;32;34882;-66
2023/06/07 15:07:56;;;;;;;;;;;;;;;24.59;51.62;100255.25;5418627;32;34401;-65
2023/06/07 15:10:58;;;;;;;;;;;;;;;24.92;50.87;100248.31;5423725;32;34782;-65
2023/06/07 15:14:00;;;;;;;;;;;;;;;24.22;52.85;100244.63;5419707;32;35112;-66
2023/06/07 15:17:03;;;;;;;;;;;;;;;25.00;51.10;100232.28;5428543;32;35680;-71
2023/06/07 15:20:05;;;;;;;;;;;;;;;24.42;53.35;100250.72;5424168;32;34859;-71
2023/06/07 15:23:08;;;;;;;;;;;;;;;24.04;55.19;100264.22;5414804;32;34093;-66
2023/06/07 15:26:10;;;;;;;;;;;;;;;;;;5421422;32;35342;-72
2023/06/07 15:29:11;;;;;;;;;;;;;;;24.29;54.27;100254.59;5424694;32;34427;-72
2023/06/07 15:32:13;;;;;;;;;;;;;;;24.61;53.43;100263.19;5430154;32;35039;-67
2023/06/07 15:35:15;;;;;;;;;;;;;;;24.46;54.59;100250.25;5426871;32;34846;-72
2023/06/07 15:38:17;;;;;;;;;;;;;;;24.34;55.61;100253.31;5432027;32;35268;-66
2023/06/07 15:41:20;;;;;;;;;;;;;;;23.76;57.75;100263.38;5426560;32;35392;-70
2023/06/07 15:44:22;;;;;;;;;;;;;;;23.80;57.44;100269.25;5432845;32;34643;-71
2023/06/07 15:47:24;;;;;;;;;;;;;;;24.09;57.56;100274.50;5430983;32;35410;-66
2023/06/07 15:50:26;;;;;;;;;;;;;;;24.50;56.53;100275.81;5427678;32;34791;-65
2023/06/07 15:53:29;;;;;;;;;;;;;;;24.59;56.04;100279.44;5432951;32;34809;-65
2023/06/07 15:56:31;;;;;;;;;;;;;;;24.16;56.94;100285.50;5428484;32;35007;-70
2023/06/07 15:59:34;;;;;;;;;;;;;;;24.69;56.54;100282.06;5420546;32;34818;-65
2023/06/07 16:02:36;;;;;;;;;;;;;;;24.72;54.90;100271.84;5430457;32;34363;-65
2023/06/07 16:05:38;;;;;;;;;;;;;;;24.42;56.04;100274.91;5422587;32;34811;-65
2023/06/07 16:08:40;;;;;;;;;;;;;;;25.11;55.80;100276.91;5430068;32;34130;-66
2023/06/07 16:11:42;;;;;;;;;;;;;;;24.91;53.82;100278.88;5412156;32;35300;-71
2023/06/07 16:14:44;;;;;;;;;;;;;;;24.95;51.40;100266.00;5435086;32;35415;-66
2023/06/07 16:17:47;;;;;;;;;;;;;;;25.07;50.37;100264.78;5428284;32;35060;-65
2023/06/07 16:20:49;;;;;;;;;;;;;;;25.04;50.76;100265.91;5417260;32;35278;-65
2023/06/07 16:23:51;;;;;;;;;;;;;;;24.80;51.83;100263.03;5427509;32;34742;-68
2023/06/07 16:26:53;;;;;;;;;;;;;;;24.89;51.85;100261.25;5429930;32;34888;-65
2023/06/07 16:29:55;;;;;;;;;;;;;;;25.02;49.07;100269.75;5430385;32;34897;-70
2023/06/07 16:32:57;;;;;;;;;;;;;;;24.80;49.24;100260.34;5428287;32;35943;-70
2023/06/07 16:35:59;;;;;;;;;;;;;;;24.48;50.63;100280.53;5418263;32;35323;-71
2023/06/07 16:39:01;;;;;;;;;;;;;;;24.65;50.34;100270.75;5427863;32;34690;-71